sensor_id;sensor_type;location;lat;lon;timestamp;P1;durP1;ratioP1;P2;durP2;ratioP2
6475;SDS011;3271;51.910;5.840;2024-03-07T00:02:12;23.70;;;18.85;;
6475;SDS011;3271;51.910;5.840;2024-03-07T00:04:38;26.55;;;19.92;;
6475;SDS011;3271;51.910;5.840;2024-03-07T00:07:05;24.42;;;18.92;;
6475;SDS011;3271;51.910;5.840;2024-03-07T00:09:32;24.67;;;20.05;;
6475;SDS011;3271;51.910;5.840;2024-03-07T00:11:59;26.55;;;19.60;;
6475;SDS011;3271;51.910;5.840;2024-03-07T00:14:25;24.50;;;18.90;;
6475;SDS011;3271;51.910;5.840;2024-03-07T00:16:54;23.88;;;19.35;;
6475;SDS011;3271;51.910;5.840;2024-03-07T00:19:21;26.67;;;19.40;;
6475;SDS011;3271;51.910;5.840;2024-03-07T00:21:47;25.17;;;19.45;;
6475;SDS011;3271;51.910;5.840;2024-03-07T00:24:13;28.13;;;21.08;;
6475;SDS011;3271;51.910;5.840;2024-03-07T00:26:39;23.90;;;19.40;;
6475;SDS011;3271;51.910;5.840;2024-03-07T00:29:06;24.25;;;19.85;;
6475;SDS011;3271;51.910;5.840;2024-03-07T00:31:32;28.33;;;20.48;;
6475;SDS011;3271;51.910;5.840;2024-03-07T00:33:58;26.33;;;20.85;;
6475;SDS011;3271;51.910;5.840;2024-03-07T00:36:24;25.88;;;19.45;;
6475;SDS011;3271;51.910;5.840;2024-03-07T00:38:50;26.42;;;20.45;;
6475;SDS011;3271;51.910;5.840;2024-03-07T00:41:16;28.10;;;21.25;;
6475;SDS011;3271;51.910;5.840;2024-03-07T00:43:42;26.27;;;20.15;;
6475;SDS011;3271;51.910;5.840;2024-03-07T00:46:08;24.80;;;19.42;;
6475;SDS011;3271;51.910;5.840;2024-03-07T00:48:36;23.65;;;19.90;;
6475;SDS011;3271;51.910;5.840;2024-03-07T00:51:02;25.02;;;20.88;;
6475;SDS011;3271;51.910;5.840;2024-03-07T00:53:29;26.63;;;19.85;;
6475;SDS011;3271;51.910;5.840;2024-03-07T00:55:55;25.73;;;20.08;;
6475;SDS011;3271;51.910;5.840;2024-03-07T00:58:21;25.80;;;20.75;;
6475;SDS011;3271;51.910;5.840;2024-03-07T01:00:47;26.73;;;20.80;;
6475;SDS011;3271;51.910;5.840;2024-03-07T01:03:13;27.40;;;19.83;;
6475;SDS011;3271;51.910;5.840;2024-03-07T01:05:42;27.27;;;20.35;;
6475;SDS011;3271;51.910;5.840;2024-03-07T01:08:08;27.83;;;21.08;;
6475;SDS011;3271;51.910;5.840;2024-03-07T01:10:34;29.08;;;21.48;;
6475;SDS011;3271;51.910;5.840;2024-03-07T01:13:00;24.40;;;20.17;;
6475;SDS011;3271;51.910;5.840;2024-03-07T01:15:27;28.92;;;20.65;;
6475;SDS011;3271;51.910;5.840;2024-03-07T01:17:53;24.85;;;20.35;;
6475;SDS011;3271;51.910;5.840;2024-03-07T01:20:19;28.48;;;20.70;;
6475;SDS011;3271;51.910;5.840;2024-03-07T01:22:45;23.40;;;19.10;;
6475;SDS011;3271;51.910;5.840;2024-03-07T01:25:11;24.75;;;21.17;;
6475;SDS011;3271;51.910;5.840;2024-03-07T01:27:37;25.88;;;19.98;;
6475;SDS011;3271;51.910;5.840;2024-03-07T01:30:04;25.45;;;19.70;;
6475;SDS011;3271;51.910;5.840;2024-03-07T01:32:33;28.35;;;20.55;;
6475;SDS011;3271;51.910;5.840;2024-03-07T01:34:59;25.50;;;19.90;;
6475;SDS011;3271;51.910;5.840;2024-03-07T01:37:25;26.58;;;19.83;;
6475;SDS011;3271;51.910;5.840;2024-03-07T01:39:51;25.83;;;21.13;;
6475;SDS011;3271;51.910;5.840;2024-03-07T01:42:17;25.05;;;21.45;;
6475;SDS011;3271;51.910;5.840;2024-03-07T01:44:43;26.42;;;20.42;;
6475;SDS011;3271;51.910;5.840;2024-03-07T01:47:09;23.35;;;19.63;;
6475;SDS011;3271;51.910;5.840;2024-03-07T01:49:36;30.10;;;21.60;;
6475;SDS011;3271;51.910;5.840;2024-03-07T01:52:04;25.05;;;20.35;;
6475;SDS011;3271;51.910;5.840;2024-03-07T01:54:30;26.88;;;19.42;;
6475;SDS011;3271;51.910;5.840;2024-03-07T01:56:56;26.83;;;19.33;;
6475;SDS011;3271;51.910;5.840;2024-03-07T01:59:23;27.00;;;21.33;;
6475;SDS011;3271;51.910;5.840;2024-03-07T02:01:50;24.75;;;19.70;;
6475;SDS011;3271;51.910;5.840;2024-03-07T02:04:16;27.38;;;21.73;;
6475;SDS011;3271;51.910;5.840;2024-03-07T02:06:42;31.85;;;22.05;;
6475;SDS011;3271;51.910;5.840;2024-03-07T02:09:08;26.33;;;21.05;;
6475;SDS011;3271;51.910;5.840;2024-03-07T02:11:34;26.73;;;21.25;;
6475;SDS011;3271;51.910;5.840;2024-03-07T02:14:00;28.13;;;20.73;;
6475;SDS011;3271;51.910;5.840;2024-03-07T02:16:27;26.17;;;20.58;;
6475;SDS011;3271;51.910;5.840;2024-03-07T02:18:53;26.90;;;19.88;;
6475;SDS011;3271;51.910;5.840;2024-03-07T02:21:20;28.38;;;21.48;;
6475;SDS011;3271;51.910;5.840;2024-03-07T02:23:46;26.55;;;21.67;;
6475;SDS011;3271;51.910;5.840;2024-03-07T02:26:12;26.20;;;19.63;;
6475;SDS011;3271;51.910;5.840;2024-03-07T02:28:38;30.27;;;22.15;;
6475;SDS011;3271;51.910;5.840;2024-03-07T02:31:04;24.48;;;20.67;;
6475;SDS011;3271;51.910;5.840;2024-03-07T02:33:30;25.02;;;20.33;;
6475;SDS011;3271;51.910;5.840;2024-03-07T02:35:57;26.00;;;21.15;;
6475;SDS011;3271;51.910;5.840;2024-03-07T02:38:23;29.83;;;22.17;;
6475;SDS011;3271;51.910;5.840;2024-03-07T02:40:49;28.00;;;21.58;;
6475;SDS011;3271;51.910;5.840;2024-03-07T02:43:15;24.05;;;20.52;;
6475;SDS011;3271;51.910;5.840;2024-03-07T02:45:41;28.75;;;20.17;;
6475;SDS011;3271;51.910;5.840;2024-03-07T02:48:07;23.45;;;20.17;;
6475;SDS011;3271;51.910;5.840;2024-03-07T02:50:37;29.65;;;21.92;;
6475;SDS011;3271;51.910;5.840;2024-03-07T02:53:06;26.20;;;21.55;;
6475;SDS011;3271;51.910;5.840;2024-03-07T02:55:32;26.40;;;19.58;;
6475;SDS011;3271;51.910;5.840;2024-03-07T02:57:59;30.65;;;20.55;;
6475;SDS011;3271;51.910;5.840;2024-03-07T03:00:25;30.55;;;20.52;;
6475;SDS011;3271;51.910;5.840;2024-03-07T03:02:51;30.50;;;21.65;;
6475;SDS011;3271;51.910;5.840;2024-03-07T03:05:17;25.88;;;20.73;;
6475;SDS011;3271;51.910;5.840;2024-03-07T03:07:44;31.42;;;23.05;;
6475;SDS011;3271;51.910;5.840;2024-03-07T03:10:17;27.35;;;22.00;;
6475;SDS011;3271;51.910;5.840;2024-03-07T03:12:43;29.90;;;21.90;;
6475;SDS011;3271;51.910;5.840;2024-03-07T03:15:09;25.95;;;21.08;;
6475;SDS011;3271;51.910;5.840;2024-03-07T03:17:36;30.13;;;22.45;;
6475;SDS011;3271;51.910;5.840;2024-03-07T03:20:02;27.00;;;20.15;;
6475;SDS011;3271;51.910;5.840;2024-03-07T03:22:40;27.42;;;21.35;;
6475;SDS011;3271;51.910;5.840;2024-03-07T03:25:08;26.95;;;21.58;;
6475;SDS011;3271;51.910;5.840;2024-03-07T03:27:36;29.10;;;20.10;;
6475;SDS011;3271;51.910;5.840;2024-03-07T03:30:02;28.40;;;21.05;;
6475;SDS011;3271;51.910;5.840;2024-03-07T03:32:29;29.92;;;23.08;;
6475;SDS011;3271;51.910;5.840;2024-03-07T03:34:55;25.75;;;19.63;;
6475;SDS011;3271;51.910;5.840;2024-03-07T03:37:21;29.33;;;21.02;;
6475;SDS011;3271;51.910;5.840;2024-03-07T03:39:47;28.30;;;22.63;;
6475;SDS011;3271;51.910;5.840;2024-03-07T03:42:14;30.45;;;23.15;;
6475;SDS011;3271;51.910;5.840;2024-03-07T03:44:40;27.95;;;22.38;;
6475;SDS011;3271;51.910;5.840;2024-03-07T03:47:06;28.45;;;21.55;;
6475;SDS011;3271;51.910;5.840;2024-03-07T03:49:32;28.35;;;20.98;;
6475;SDS011;3271;51.910;5.840;2024-03-07T03:51:58;28.42;;;22.42;;
6475;SDS011;3271;51.910;5.840;2024-03-07T03:54:24;25.50;;;19.83;;
6475;SDS011;3271;51.910;5.840;2024-03-07T03:56:50;33.63;;;21.23;;
6475;SDS011;3271;51.910;5.840;2024-03-07T03:59:16;30.70;;;22.20;;
6475;SDS011;3271;51.910;5.840;2024-03-07T04:01:43;25.88;;;22.02;;
6475;SDS011;3271;51.910;5.840;2024-03-07T04:04:10;26.77;;;21.27;;
6475;SDS011;3271;51.910;5.840;2024-03-07T04:06:36;26.88;;;21.73;;
6475;SDS011;3271;51.910;5.840;2024-03-07T04:09:02;30.45;;;21.33;;
6475;SDS011;3271;51.910;5.840;2024-03-07T04:11:29;31.65;;;22.85;;
6475;SDS011;3271;51.910;5.840;2024-03-07T04:13:55;29.83;;;21.17;;
6475;SDS011;3271;51.910;5.840;2024-03-07T04:16:21;28.73;;;22.33;;
6475;SDS011;3271;51.910;5.840;2024-03-07T04:18:48;29.27;;;22.23;;
6475;SDS011;3271;51.910;5.840;2024-03-07T04:21:14;31.00;;;22.67;;
6475;SDS011;3271;51.910;5.840;2024-03-07T04:23:40;25.35;;;20.70;;
6475;SDS011;3271;51.910;5.840;2024-03-07T04:26:06;28.60;;;20.88;;
6475;SDS011;3271;51.910;5.840;2024-03-07T04:28:33;27.02;;;19.85;;
6475;SDS011;3271;51.910;5.840;2024-03-07T04:30:59;30.67;;;22.35;;
6475;SDS011;3271;51.910;5.840;2024-03-07T04:33:26;28.35;;;21.90;;
6475;SDS011;3271;51.910;5.840;2024-03-07T04:35:52;27.73;;;22.15;;
6475;SDS011;3271;51.910;5.840;2024-03-07T04:38:18;26.15;;;21.08;;
6475;SDS011;3271;51.910;5.840;2024-03-07T04:40:44;30.08;;;22.23;;
6475;SDS011;3271;51.910;5.840;2024-03-07T04:43:09;26.77;;;20.40;;
6475;SDS011;3271;51.910;5.840;2024-03-07T04:45:36;26.80;;;20.38;;
6475;SDS011;3271;51.910;5.840;2024-03-07T04:48:02;28.80;;;22.08;;
6475;SDS011;3271;51.910;5.840;2024-03-07T04:50:28;28.55;;;22.63;;
6475;SDS011;3271;51.910;5.840;2024-03-07T04:52:54;29.25;;;21.98;;
6475;SDS011;3271;51.910;5.840;2024-03-07T04:55:20;29.00;;;21.20;;
6475;SDS011;3271;51.910;5.840;2024-03-07T04:57:46;28.17;;;21.33;;
6475;SDS011;3271;51.910;5.840;2024-03-07T05:00:12;27.23;;;21.25;;
6475;SDS011;3271;51.910;5.840;2024-03-07T05:02:42;25.90;;;21.23;;
6475;SDS011;3271;51.910;5.840;2024-03-07T05:05:08;29.85;;;21.63;;
6475;SDS011;3271;51.910;5.840;2024-03-07T05:07:34;30.10;;;21.35;;
6475;SDS011;3271;51.910;5.840;2024-03-07T05:10:01;27.17;;;19.98;;
6475;SDS011;3271;51.910;5.840;2024-03-07T05:12:27;29.48;;;21.67;;
6475;SDS011;3271;51.910;5.840;2024-03-07T05:14:53;27.83;;;23.17;;
6475;SDS011;3271;51.910;5.840;2024-03-07T05:17:19;28.50;;;20.30;;
6475;SDS011;3271;51.910;5.840;2024-03-07T05:19:47;27.20;;;19.20;;
6475;SDS011;3271;51.910;5.840;2024-03-07T05:22:14;24.02;;;19.58;;
6475;SDS011;3271;51.910;5.840;2024-03-07T05:24:41;27.85;;;22.20;;
6475;SDS011;3271;51.910;5.840;2024-03-07T05:27:07;26.92;;;20.85;;
6475;SDS011;3271;51.910;5.840;2024-03-07T05:29:36;28.67;;;21.27;;
6475;SDS011;3271;51.910;5.840;2024-03-07T05:32:21;27.65;;;20.55;;
6475;SDS011;3271;51.910;5.840;2024-03-07T05:34:53;24.35;;;19.13;;
6475;SDS011;3271;51.910;5.840;2024-03-07T05:37:19;28.17;;;20.25;;
6475;SDS011;3271;51.910;5.840;2024-03-07T05:39:47;25.73;;;20.55;;
6475;SDS011;3271;51.910;5.840;2024-03-07T05:42:13;26.77;;;21.02;;
6475;SDS011;3271;51.910;5.840;2024-03-07T05:44:40;25.48;;;19.42;;
6475;SDS011;3271;51.910;5.840;2024-03-07T05:47:06;24.20;;;18.75;;
6475;SDS011;3271;51.910;5.840;2024-03-07T05:49:32;26.10;;;19.95;;
6475;SDS011;3271;51.910;5.840;2024-03-07T05:51:58;27.38;;;22.08;;
6475;SDS011;3271;51.910;5.840;2024-03-07T05:54:25;27.23;;;21.48;;
6475;SDS011;3271;51.910;5.840;2024-03-07T05:56:51;27.45;;;20.77;;
6475;SDS011;3271;51.910;5.840;2024-03-07T05:59:17;25.55;;;19.95;;
6475;SDS011;3271;51.910;5.840;2024-03-07T06:01:43;24.38;;;19.70;;
6475;SDS011;3271;51.910;5.840;2024-03-07T06:04:09;25.02;;;20.00;;
6475;SDS011;3271;51.910;5.840;2024-03-07T06:06:36;27.42;;;21.42;;
6475;SDS011;3271;51.910;5.840;2024-03-07T06:09:06;26.13;;;20.60;;
6475;SDS011;3271;51.910;5.840;2024-03-07T06:11:36;27.88;;;21.80;;
6475;SDS011;3271;51.910;5.840;2024-03-07T06:14:02;29.00;;;20.90;;
6475;SDS011;3271;51.910;5.840;2024-03-07T06:16:31;25.27;;;19.65;;
6475;SDS011;3271;51.910;5.840;2024-03-07T06:19:01;25.90;;;20.92;;
6475;SDS011;3271;51.910;5.840;2024-03-07T06:21:27;22.85;;;20.13;;
6475;SDS011;3271;51.910;5.840;2024-03-07T06:23:54;23.58;;;20.80;;
6475;SDS011;3271;51.910;5.840;2024-03-07T06:29:10;25.35;;;19.95;;
6475;SDS011;3271;51.910;5.840;2024-03-07T06:31:39;25.80;;;19.52;;
6475;SDS011;3271;51.910;5.840;2024-03-07T06:34:06;25.05;;;20.25;;
6475;SDS011;3271;51.910;5.840;2024-03-07T06:36:33;22.08;;;19.13;;
6475;SDS011;3271;51.910;5.840;2024-03-07T06:38:59;22.67;;;18.15;;
6475;SDS011;3271;51.910;5.840;2024-03-07T06:41:25;23.83;;;19.85;;
6475;SDS011;3271;51.910;5.840;2024-03-07T06:43:51;20.75;;;17.52;;
6475;SDS011;3271;51.910;5.840;2024-03-07T06:46:20;22.83;;;19.35;;
6475;SDS011;3271;51.910;5.840;2024-03-07T06:48:46;23.55;;;19.75;;
6475;SDS011;3271;51.910;5.840;2024-03-07T06:51:12;21.20;;;18.83;;
6475;SDS011;3271;51.910;5.840;2024-03-07T06:53:38;24.52;;;19.52;;
6475;SDS011;3271;51.910;5.840;2024-03-07T06:56:04;22.95;;;19.15;;
6475;SDS011;3271;51.910;5.840;2024-03-07T06:58:31;24.33;;;18.67;;
6475;SDS011;3271;51.910;5.840;2024-03-07T07:00:57;20.55;;;17.88;;
6475;SDS011;3271;51.910;5.840;2024-03-07T07:03:25;21.50;;;17.55;;
6475;SDS011;3271;51.910;5.840;2024-03-07T07:05:53;21.42;;;17.58;;
6475;SDS011;3271;51.910;5.840;2024-03-07T07:08:19;21.35;;;18.80;;
6475;SDS011;3271;51.910;5.840;2024-03-07T07:10:46;23.52;;;18.00;;
6475;SDS011;3271;51.910;5.840;2024-03-07T07:13:13;23.77;;;18.98;;
6475;SDS011;3271;51.910;5.840;2024-03-07T07:15:39;23.05;;;18.13;;
6475;SDS011;3271;51.910;5.840;2024-03-07T07:18:05;20.35;;;17.05;;
6475;SDS011;3271;51.910;5.840;2024-03-07T07:20:32;20.70;;;18.50;;
6475;SDS011;3271;51.910;5.840;2024-03-07T07:23:02;22.17;;;17.50;;
6475;SDS011;3271;51.910;5.840;2024-03-07T07:25:29;22.13;;;17.75;;
6475;SDS011;3271;51.910;5.840;2024-03-07T07:27:55;20.05;;;17.50;;
6475;SDS011;3271;51.910;5.840;2024-03-07T07:30:21;20.55;;;16.60;;
6475;SDS011;3271;51.910;5.840;2024-03-07T07:32:48;21.15;;;16.45;;
6475;SDS011;3271;51.910;5.840;2024-03-07T07:35:14;19.98;;;16.80;;
6475;SDS011;3271;51.910;5.840;2024-03-07T07:37:44;21.05;;;17.50;;
6475;SDS011;3271;51.910;5.840;2024-03-07T07:40:11;21.00;;;17.15;;
6475;SDS011;3271;51.910;5.840;2024-03-07T07:42:43;19.75;;;16.88;;
6475;SDS011;3271;51.910;5.840;2024-03-07T07:45:11;21.25;;;17.15;;
6475;SDS011;3271;51.910;5.840;2024-03-07T07:47:41;19.77;;;16.17;;
6475;SDS011;3271;51.910;5.840;2024-03-07T07:50:08;18.63;;;16.33;;
6475;SDS011;3271;51.910;5.840;2024-03-07T07:52:55;20.33;;;16.73;;
6475;SDS011;3271;51.910;5.840;2024-03-07T07:55:22;19.30;;;15.40;;
6475;SDS011;3271;51.910;5.840;2024-03-07T07:57:49;18.20;;;16.17;;
6475;SDS011;3271;51.910;5.840;2024-03-07T08:00:19;19.00;;;16.40;;
6475;SDS011;3271;51.910;5.840;2024-03-07T08:02:54;20.90;;;15.52;;
6475;SDS011;3271;51.910;5.840;2024-03-07T08:05:21;19.40;;;16.23;;
6475;SDS011;3271;51.910;5.840;2024-03-07T08:07:51;16.60;;;14.75;;
6475;SDS011;3271;51.910;5.840;2024-03-07T08:10:21;17.38;;;14.88;;
6475;SDS011;3271;51.910;5.840;2024-03-07T08:12:50;16.55;;;14.75;;
6475;SDS011;3271;51.910;5.840;2024-03-07T08:15:17;19.42;;;16.85;;
6475;SDS011;3271;51.910;5.840;2024-03-07T08:17:43;18.27;;;15.80;;
6475;SDS011;3271;51.910;5.840;2024-03-07T08:20:10;16.52;;;14.73;;
6475;SDS011;3271;51.910;5.840;2024-03-07T08:22:43;17.40;;;14.77;;
6475;SDS011;3271;51.910;5.840;2024-03-07T08:25:19;17.38;;;15.63;;
6475;SDS011;3271;51.910;5.840;2024-03-07T08:27:46;16.92;;;15.13;;
6475;SDS011;3271;51.910;5.840;2024-03-07T08:30:12;17.05;;;14.48;;
6475;SDS011;3271;51.910;5.840;2024-03-07T08:32:39;16.83;;;15.02;;
6475;SDS011;3271;51.910;5.840;2024-03-07T08:35:06;15.10;;;13.30;;
6475;SDS011;3271;51.910;5.840;2024-03-07T08:37:38;18.75;;;15.05;;
6475;SDS011;3271;51.910;5.840;2024-03-07T08:40:04;16.33;;;13.57;;
6475;SDS011;3271;51.910;5.840;2024-03-07T08:42:44;16.98;;;14.40;;
6475;SDS011;3271;51.910;5.840;2024-03-07T08:45:10;16.10;;;14.23;;
6475;SDS011;3271;51.910;5.840;2024-03-07T08:47:42;17.27;;;14.85;;
6475;SDS011;3271;51.910;5.840;2024-03-07T08:50:08;18.50;;;14.27;;
6475;SDS011;3271;51.910;5.840;2024-03-07T08:52:34;17.58;;;14.05;;
6475;SDS011;3271;51.910;5.840;2024-03-07T08:55:05;16.88;;;13.82;;
6475;SDS011;3271;51.910;5.840;2024-03-07T08:57:31;15.00;;;13.40;;
6475;SDS011;3271;51.910;5.840;2024-03-07T08:59:57;19.08;;;14.93;;
6475;SDS011;3271;51.910;5.840;2024-03-07T09:02:23;15.93;;;13.48;;
6475;SDS011;3271;51.910;5.840;2024-03-07T09:04:50;15.95;;;14.25;;
6475;SDS011;3271;51.910;5.840;2024-03-07T09:07:16;14.32;;;12.82;;
6475;SDS011;3271;51.910;5.840;2024-03-07T09:09:42;15.57;;;13.98;;
6475;SDS011;3271;51.910;5.840;2024-03-07T09:12:10;15.60;;;14.02;;
6475;SDS011;3271;51.910;5.840;2024-03-07T09:14:36;17.15;;;13.85;;
6475;SDS011;3271;51.910;5.840;2024-03-07T09:17:02;16.35;;;14.63;;
6475;SDS011;3271;51.910;5.840;2024-03-07T09:19:29;14.35;;;12.95;;
6475;SDS011;3271;51.910;5.840;2024-03-07T09:21:55;17.65;;;14.48;;
6475;SDS011;3271;51.910;5.840;2024-03-07T09:24:21;16.30;;;12.70;;
6475;SDS011;3271;51.910;5.840;2024-03-07T09:26:50;15.10;;;13.50;;
6475;SDS011;3271;51.910;5.840;2024-03-07T09:29:17;16.25;;;14.07;;
6475;SDS011;3271;51.910;5.840;2024-03-07T09:31:43;15.75;;;13.98;;
6475;SDS011;3271;51.910;5.840;2024-03-07T09:34:09;13.82;;;12.45;;
6475;SDS011;3271;51.910;5.840;2024-03-07T09:36:35;14.38;;;12.98;;
6475;SDS011;3271;51.910;5.840;2024-03-07T09:39:01;14.32;;;12.43;;
6475;SDS011;3271;51.910;5.840;2024-03-07T09:41:27;15.27;;;12.85;;
6475;SDS011;3271;51.910;5.840;2024-03-07T09:43:53;15.05;;;13.35;;
6475;SDS011;3271;51.910;5.840;2024-03-07T09:46:23;15.00;;;13.10;;
6475;SDS011;3271;51.910;5.840;2024-03-07T09:48:50;15.27;;;13.68;;
6475;SDS011;3271;51.910;5.840;2024-03-07T09:51:18;14.10;;;12.60;;
6475;SDS011;3271;51.910;5.840;2024-03-07T09:53:45;14.32;;;12.82;;
6475;SDS011;3271;51.910;5.840;2024-03-07T09:56:12;14.20;;;12.27;;
6475;SDS011;3271;51.910;5.840;2024-03-07T09:58:40;14.05;;;11.77;;
6475;SDS011;3271;51.910;5.840;2024-03-07T10:01:07;14.95;;;13.20;;
6475;SDS011;3271;51.910;5.840;2024-03-07T10:03:35;15.00;;;13.40;;
6475;SDS011;3271;51.910;5.840;2024-03-07T10:06:01;13.88;;;12.43;;
6475;SDS011;3271;51.910;5.840;2024-03-07T10:08:28;14.48;;;12.90;;
6475;SDS011;3271;51.910;5.840;2024-03-07T10:10:55;15.07;;;12.98;;
6475;SDS011;3271;51.910;5.840;2024-03-07T10:13:22;14.20;;;12.20;;
6475;SDS011;3271;51.910;5.840;2024-03-07T10:15:48;15.20;;;13.70;;
6475;SDS011;3271;51.910;5.840;2024-03-07T10:18:14;13.88;;;12.23;;
6475;SDS011;3271;51.910;5.840;2024-03-07T10:20:43;14.30;;;12.63;;
6475;SDS011;3271;51.910;5.840;2024-03-07T10:23:09;14.68;;;13.10;;
6475;SDS011;3271;51.910;5.840;2024-03-07T10:25:35;14.63;;;12.30;;
6475;SDS011;3271;51.910;5.840;2024-03-07T10:28:03;13.90;;;12.35;;
6475;SDS011;3271;51.910;5.840;2024-03-07T10:30:31;14.15;;;11.60;;
6475;SDS011;3271;51.910;5.840;2024-03-07T10:33:04;14.77;;;13.15;;
6475;SDS011;3271;51.910;5.840;2024-03-07T10:35:32;13.95;;;12.45;;
6475;SDS011;3271;51.910;5.840;2024-03-07T10:37:58;15.93;;;13.75;;
6475;SDS011;3271;51.910;5.840;2024-03-07T10:40:25;16.35;;;13.02;;
6475;SDS011;3271;51.910;5.840;2024-03-07T10:42:54;14.70;;;12.68;;
6475;SDS011;3271;51.910;5.840;2024-03-07T10:45:21;15.52;;;13.43;;
6475;SDS011;3271;51.910;5.840;2024-03-07T10:47:52;16.20;;;13.35;;
6475;SDS011;3271;51.910;5.840;2024-03-07T10:50:27;14.20;;;12.75;;
6475;SDS011;3271;51.910;5.840;2024-03-07T10:52:59;15.02;;;12.25;;
6475;SDS011;3271;51.910;5.840;2024-03-07T10:55:31;15.55;;;13.20;;
6475;SDS011;3271;51.910;5.840;2024-03-07T10:58:02;17.17;;;14.68;;
6475;SDS011;3271;51.910;5.840;2024-03-07T11:00:32;15.57;;;13.68;;
6475;SDS011;3271;51.910;5.840;2024-03-07T11:03:02;15.75;;;13.20;;
6475;SDS011;3271;51.910;5.840;2024-03-07T11:05:34;15.68;;;12.75;;
6475;SDS011;3271;51.910;5.840;2024-03-07T11:08:01;16.20;;;13.15;;
6475;SDS011;3271;51.910;5.840;2024-03-07T11:10:32;16.48;;;13.40;;
6475;SDS011;3271;51.910;5.840;2024-03-07T11:12:58;16.83;;;13.52;;
6475;SDS011;3271;51.910;5.840;2024-03-07T11:15:25;17.20;;;14.10;;
6475;SDS011;3271;51.910;5.840;2024-03-07T11:17:52;15.75;;;14.05;;
6475;SDS011;3271;51.910;5.840;2024-03-07T11:20:22;14.30;;;12.65;;
6475;SDS011;3271;51.910;5.840;2024-03-07T11:22:49;18.98;;;15.02;;
6475;SDS011;3271;51.910;5.840;2024-03-07T11:25:19;17.05;;;13.18;;
6475;SDS011;3271;51.910;5.840;2024-03-07T11:30:19;17.02;;;12.57;;
6475;SDS011;3271;51.910;5.840;2024-03-07T11:32:46;17.77;;;14.02;;
6475;SDS011;3271;51.910;5.840;2024-03-07T11:35:14;13.73;;;11.43;;
6475;SDS011;3271;51.910;5.840;2024-03-07T11:37:43;15.27;;;12.73;;
6475;SDS011;3271;51.910;5.840;2024-03-07T11:40:13;19.08;;;12.98;;
6475;SDS011;3271;51.910;5.840;2024-03-07T11:42:46;12.80;;;11.35;;
6475;SDS011;3271;51.910;5.840;2024-03-07T11:45:13;17.83;;;13.18;;
6475;SDS011;3271;51.910;5.840;2024-03-07T11:47:55;14.82;;;12.38;;
6475;SDS011;3271;51.910;5.840;2024-03-07T11:50:40;13.50;;;11.45;;
6475;SDS011;3271;51.910;5.840;2024-03-07T11:53:08;15.15;;;12.15;;
6475;SDS011;3271;51.910;5.840;2024-03-07T11:55:35;17.83;;;14.10;;
6475;SDS011;3271;51.910;5.840;2024-03-07T11:58:12;16.92;;;13.63;;
6475;SDS011;3271;51.910;5.840;2024-03-07T12:00:39;16.45;;;13.32;;
6475;SDS011;3271;51.910;5.840;2024-03-07T12:03:08;15.65;;;13.55;;
6475;SDS011;3271;51.910;5.840;2024-03-07T12:05:38;16.05;;;12.75;;
6475;SDS011;3271;51.910;5.840;2024-03-07T12:08:04;12.75;;;10.75;;
6475;SDS011;3271;51.910;5.840;2024-03-07T12:10:30;14.35;;;12.18;;
6475;SDS011;3271;51.910;5.840;2024-03-07T12:12:56;16.98;;;13.85;;
6475;SDS011;3271;51.910;5.840;2024-03-07T12:15:23;14.43;;;12.30;;
6475;SDS011;3271;51.910;5.840;2024-03-07T12:17:49;14.93;;;12.35;;
6475;SDS011;3271;51.910;5.840;2024-03-07T12:20:16;14.73;;;12.88;;
6475;SDS011;3271;51.910;5.840;2024-03-07T12:23:01;14.25;;;11.95;;
6475;SDS011;3271;51.910;5.840;2024-03-07T12:25:27;15.32;;;11.80;;
6475;SDS011;3271;51.910;5.840;2024-03-07T12:30:36;12.88;;;10.23;;
6475;SDS011;3271;51.910;5.840;2024-03-07T12:33:04;13.00;;;10.95;;
6475;SDS011;3271;51.910;5.840;2024-03-07T12:35:32;12.85;;;11.10;;
6475;SDS011;3271;51.910;5.840;2024-03-07T12:37:58;13.57;;;11.70;;
6475;SDS011;3271;51.910;5.840;2024-03-07T12:40:25;11.95;;;10.18;;
6475;SDS011;3271;51.910;5.840;2024-03-07T12:42:54;11.48;;;10.27;;
6475;SDS011;3271;51.910;5.840;2024-03-07T12:45:20;12.02;;;10.63;;
6475;SDS011;3271;51.910;5.840;2024-03-07T12:47:55;12.40;;;10.63;;
6475;SDS011;3271;51.910;5.840;2024-03-07T12:50:21;12.30;;;11.10;;
6475;SDS011;3271;51.910;5.840;2024-03-07T12:52:47;13.52;;;12.13;;
6475;SDS011;3271;51.910;5.840;2024-03-07T12:55:17;15.23;;;13.63;;
6475;SDS011;3271;51.910;5.840;2024-03-07T12:57:44;13.65;;;12.25;;
6475;SDS011;3271;51.910;5.840;2024-03-07T13:00:10;14.00;;;12.60;;
6475;SDS011;3271;51.910;5.840;2024-03-07T13:02:44;16.95;;;13.57;;
6475;SDS011;3271;51.910;5.840;2024-03-07T13:05:10;13.18;;;11.77;;
6475;SDS011;3271;51.910;5.840;2024-03-07T13:07:46;13.85;;;12.45;;
6475;SDS011;3271;51.910;5.840;2024-03-07T13:10:12;13.30;;;11.68;;
6475;SDS011;3271;51.910;5.840;2024-03-07T13:12:43;18.50;;;12.32;;
6475;SDS011;3271;51.910;5.840;2024-03-07T13:15:10;14.27;;;11.82;;
6475;SDS011;3271;51.910;5.840;2024-03-07T13:17:36;15.20;;;12.68;;
6475;SDS011;3271;51.910;5.840;2024-03-07T13:20:02;14.52;;;12.45;;
6475;SDS011;3271;51.910;5.840;2024-03-07T13:22:36;13.40;;;12.02;;
6475;SDS011;3271;51.910;5.840;2024-03-07T13:25:02;13.43;;;12.02;;
6475;SDS011;3271;51.910;5.840;2024-03-07T13:27:38;13.77;;;12.38;;
6475;SDS011;3271;51.910;5.840;2024-03-07T13:30:05;13.65;;;11.80;;
6475;SDS011;3271;51.910;5.840;2024-03-07T13:32:32;13.60;;;12.07;;
6475;SDS011;3271;51.910;5.840;2024-03-07T13:34:58;14.80;;;12.55;;
6475;SDS011;3271;51.910;5.840;2024-03-07T13:37:26;13.38;;;11.55;;
6475;SDS011;3271;51.910;5.840;2024-03-07T13:39:52;13.65;;;12.20;;
6475;SDS011;3271;51.910;5.840;2024-03-07T13:42:18;14.60;;;12.15;;
6475;SDS011;3271;51.910;5.840;2024-03-07T13:44:44;14.55;;;12.95;;
6475;SDS011;3271;51.910;5.840;2024-03-07T13:47:10;14.20;;;12.68;;
6475;SDS011;3271;51.910;5.840;2024-03-07T13:49:36;12.45;;;11.13;;
6475;SDS011;3271;51.910;5.840;2024-03-07T13:52:03;13.77;;;12.32;;
6475;SDS011;3271;51.910;5.840;2024-03-07T13:54:35;13.95;;;12.50;;
6475;SDS011;3271;51.910;5.840;2024-03-07T14:02:47;12.98;;;11.68;;
6475;SDS011;3271;51.910;5.840;2024-03-07T14:13:08;11.88;;;10.68;;
6475;SDS011;3271;51.910;5.840;2024-03-07T14:18:22;12.80;;;11.43;;
6475;SDS011;3271;51.910;5.840;2024-03-07T14:21:04;14.57;;;12.07;;
6475;SDS011;3271;51.910;5.840;2024-03-07T14:31:52;13.82;;;12.38;;
6475;SDS011;3271;51.910;5.840;2024-03-07T14:36:51;13.02;;;11.63;;
6475;SDS011;3271;51.910;5.840;2024-03-07T14:39:18;12.75;;;11.45;;
6475;SDS011;3271;51.910;5.840;2024-03-07T14:42:06;12.38;;;11.10;;
6475;SDS011;3271;51.910;5.840;2024-03-07T14:44:35;12.13;;;10.82;;
6475;SDS011;3271;51.910;5.840;2024-03-07T14:47:05;13.43;;;12.02;;
6475;SDS011;3271;51.910;5.840;2024-03-07T14:49:31;12.50;;;11.10;;
6475;SDS011;3271;51.910;5.840;2024-03-07T14:51:58;13.65;;;11.30;;
6475;SDS011;3271;51.910;5.840;2024-03-07T14:54:24;12.95;;;11.65;;
6475;SDS011;3271;51.910;5.840;2024-03-07T14:56:50;13.25;;;11.48;;
6475;SDS011;3271;51.910;5.840;2024-03-07T14:59:17;14.85;;;12.20;;
6475;SDS011;3271;51.910;5.840;2024-03-07T15:01:43;13.43;;;12.02;;
6475;SDS011;3271;51.910;5.840;2024-03-07T15:04:09;11.65;;;10.48;;
6475;SDS011;3271;51.910;5.840;2024-03-07T15:06:37;11.98;;;10.73;;
6475;SDS011;3271;51.910;5.840;2024-03-07T15:09:03;11.93;;;10.63;;
6475;SDS011;3271;51.910;5.840;2024-03-07T15:11:34;12.13;;;10.88;;
6475;SDS011;3271;51.910;5.840;2024-03-07T15:14:01;14.55;;;11.98;;
6475;SDS011;3271;51.910;5.840;2024-03-07T15:16:29;13.20;;;11.18;;
6475;SDS011;3271;51.910;5.840;2024-03-07T15:18:59;11.93;;;10.73;;
6475;SDS011;3271;51.910;5.840;2024-03-07T15:21:25;12.57;;;10.80;;
6475;SDS011;3271;51.910;5.840;2024-03-07T15:23:52;13.10;;;11.52;;
6475;SDS011;3271;51.910;5.840;2024-03-07T15:26:18;12.50;;;11.20;;